sensor_id;sensor_type;location;lat;lon;timestamp;P1;durP1;ratioP1;P2;durP2;ratioP2
8702;SDS011;9002;42.708;23.186;2024-01-15T00:01:15;94.05;;;46.33;;
8702;SDS011;9002;42.708;23.186;2024-01-15T00:03:42;86.75;;;44.03;;
8702;SDS011;9002;42.708;23.186;2024-01-15T00:06:09;91.95;;;51.90;;
8702;SDS011;9002;42.708;23.186;2024-01-15T00:08:36;95.20;;;53.35;;
8702;SDS011;9002;42.708;23.186;2024-01-15T00:11:03;93.00;;;51.75;;
8702;SDS011;9002;42.708;23.186;2024-01-15T00:13:30;99.68;;;52.35;;
8702;SDS011;9002;42.708;23.186;2024-01-15T00:15:58;83.35;;;47.58;;
8702;SDS011;9002;42.708;23.186;2024-01-15T00:18:26;84.60;;;49.08;;
8702;SDS011;9002;42.708;23.186;2024-01-15T00:23:19;83.93;;;42.47;;
8702;SDS011;9002;42.708;23.186;2024-01-15T00:25:46;76.85;;;44.03;;
8702;SDS011;9002;42.708;23.186;2024-01-15T00:28:13;78.65;;;44.35;;
8702;SDS011;9002;42.708;23.186;2024-01-15T00:30:40;73.07;;;40.25;;
8702;SDS011;9002;42.708;23.186;2024-01-15T00:33:10;82.25;;;45.05;;
8702;SDS011;9002;42.708;23.186;2024-01-15T00:35:38;72.40;;;39.05;;
8702;SDS011;9002;42.708;23.186;2024-01-15T00:38:05;77.50;;;43.47;;
8702;SDS011;9002;42.708;23.186;2024-01-15T00:40:31;77.30;;;44.95;;
8702;SDS011;9002;42.708;23.186;2024-01-15T00:42:58;88.00;;;42.35;;
8702;SDS011;9002;42.708;23.186;2024-01-15T00:45:25;80.43;;;43.60;;
8702;SDS011;9002;42.708;23.186;2024-01-15T00:47:52;75.22;;;40.42;;
8702;SDS011;9002;42.708;23.186;2024-01-15T00:50:24;78.55;;;44.45;;
8702;SDS011;9002;42.708;23.186;2024-01-15T00:52:51;84.47;;;46.50;;
8702;SDS011;9002;42.708;23.186;2024-01-15T00:55:18;85.93;;;46.13;;
8702;SDS011;9002;42.708;23.186;2024-01-15T00:57:45;78.35;;;45.20;;
8702;SDS011;9002;42.708;23.186;2024-01-15T01:00:12;79.35;;;44.10;;
8702;SDS011;9002;42.708;23.186;2024-01-15T01:02:39;78.47;;;41.83;;
8702;SDS011;9002;42.708;23.186;2024-01-15T01:05:07;75.30;;;40.50;;
8702;SDS011;9002;42.708;23.186;2024-01-15T01:10:02;72.30;;;36.60;;
8702;SDS011;9002;42.708;23.186;2024-01-15T01:12:29;69.40;;;38.28;;
8702;SDS011;9002;42.708;23.186;2024-01-15T01:14:56;62.55;;;34.38;;
8702;SDS011;9002;42.708;23.186;2024-01-15T01:17:24;64.88;;;34.65;;
8702;SDS011;9002;42.708;23.186;2024-01-15T01:19:51;66.63;;;36.25;;
8702;SDS011;9002;42.708;23.186;2024-01-15T01:22:18;59.15;;;34.63;;
8702;SDS011;9002;42.708;23.186;2024-01-15T01:24:47;53.72;;;28.10;;
8702;SDS011;9002;42.708;23.186;2024-01-15T01:27:13;48.30;;;27.67;;
8702;SDS011;9002;42.708;23.186;2024-01-15T01:29:40;47.95;;;27.98;;
8702;SDS011;9002;42.708;23.186;2024-01-15T01:32:07;51.85;;;26.73;;
8702;SDS011;9002;42.708;23.186;2024-01-15T01:34:39;47.42;;;24.88;;
8702;SDS011;9002;42.708;23.186;2024-01-15T01:37:07;45.72;;;26.30;;
8702;SDS011;9002;42.708;23.186;2024-01-15T01:42:03;43.78;;;25.40;;
8702;SDS011;9002;42.708;23.186;2024-01-15T01:44:30;50.60;;;28.88;;
8702;SDS011;9002;42.708;23.186;2024-01-15T01:46:57;51.50;;;29.73;;
8702;SDS011;9002;42.708;23.186;2024-01-15T01:49:25;44.33;;;27.67;;
8702;SDS011;9002;42.708;23.186;2024-01-15T01:51:53;46.58;;;27.48;;
8702;SDS011;9002;42.708;23.186;2024-01-15T01:54:21;48.92;;;26.20;;
8702;SDS011;9002;42.708;23.186;2024-01-15T01:56:48;44.83;;;26.67;;
8702;SDS011;9002;42.708;23.186;2024-01-15T01:59:18;46.92;;;26.92;;
8702;SDS011;9002;42.708;23.186;2024-01-15T02:01:45;51.13;;;30.80;;
8702;SDS011;9002;42.708;23.186;2024-01-15T02:06:39;84.25;;;38.58;;
8702;SDS011;9002;42.708;23.186;2024-01-15T02:09:06;80.82;;;42.38;;
8702;SDS011;9002;42.708;23.186;2024-01-15T02:11:34;79.80;;;44.00;;
8702;SDS011;9002;42.708;23.186;2024-01-15T02:14:02;81.63;;;42.75;;
8702;SDS011;9002;42.708;23.186;2024-01-15T02:16:31;76.35;;;40.75;;
8702;SDS011;9002;42.708;23.186;2024-01-15T02:18:58;83.75;;;44.35;;
8702;SDS011;9002;42.708;23.186;2024-01-15T02:21:25;88.47;;;47.22;;
8702;SDS011;9002;42.708;23.186;2024-01-15T02:23:55;81.20;;;45.33;;
8702;SDS011;9002;42.708;23.186;2024-01-15T02:26:22;80.70;;;45.80;;
8702;SDS011;9002;42.708;23.186;2024-01-15T02:28:49;87.32;;;45.72;;
8702;SDS011;9002;42.708;23.186;2024-01-15T02:31:17;89.60;;;46.55;;
8702;SDS011;9002;42.708;23.186;2024-01-15T02:33:44;89.72;;;50.80;;
8702;SDS011;9002;42.708;23.186;2024-01-15T02:36:12;81.57;;;47.33;;
8702;SDS011;9002;42.708;23.186;2024-01-15T02:38:39;84.32;;;46.10;;
8702;SDS011;9002;42.708;23.186;2024-01-15T02:41:07;74.95;;;39.03;;
8702;SDS011;9002;42.708;23.186;2024-01-15T02:43:34;73.13;;;42.08;;
8702;SDS011;9002;42.708;23.186;2024-01-15T02:46:01;70.43;;;35.15;;
8702;SDS011;9002;42.708;23.186;2024-01-15T02:48:28;70.70;;;35.90;;
8702;SDS011;9002;42.708;23.186;2024-01-15T02:50:55;67.75;;;36.08;;
8702;SDS011;9002;42.708;23.186;2024-01-15T02:53:22;68.30;;;35.90;;
8702;SDS011;9002;42.708;23.186;2024-01-15T02:55:49;63.00;;;35.38;;
8702;SDS011;9002;42.708;23.186;2024-01-15T02:58:17;73.22;;;42.08;;
8702;SDS011;9002;42.708;23.186;2024-01-15T03:00:44;73.95;;;40.05;;
8702;SDS011;9002;42.708;23.186;2024-01-15T03:03:11;72.47;;;42.17;;
8702;SDS011;9002;42.708;23.186;2024-01-15T03:05:38;72.53;;;37.38;;
8702;SDS011;9002;42.708;23.186;2024-01-15T03:08:05;83.75;;;42.42;;
8702;SDS011;9002;42.708;23.186;2024-01-15T03:10:32;84.13;;;45.15;;
8702;SDS011;9002;42.708;23.186;2024-01-15T03:12:59;85.80;;;45.45;;
8702;SDS011;9002;42.708;23.186;2024-01-15T03:15:28;94.28;;;49.08;;
8702;SDS011;9002;42.708;23.186;2024-01-15T03:17:54;91.72;;;49.40;;
8702;SDS011;9002;42.708;23.186;2024-01-15T03:20:21;101.57;;;49.95;;
8702;SDS011;9002;42.708;23.186;2024-01-15T03:22:48;88.47;;;46.30;;
8702;SDS011;9002;42.708;23.186;2024-01-15T03:25:15;96.05;;;50.67;;
8702;SDS011;9002;42.708;23.186;2024-01-15T03:27:42;92.00;;;47.17;;
8702;SDS011;9002;42.708;23.186;2024-01-15T03:30:12;92.43;;;48.88;;
8702;SDS011;9002;42.708;23.186;2024-01-15T03:32:41;91.53;;;49.33;;
8702;SDS011;9002;42.708;23.186;2024-01-15T03:35:08;88.05;;;50.83;;
8702;SDS011;9002;42.708;23.186;2024-01-15T03:37:35;87.22;;;47.10;;
8702;SDS011;9002;42.708;23.186;2024-01-15T03:40:02;94.32;;;50.47;;
8702;SDS011;9002;42.708;23.186;2024-01-15T03:42:30;95.35;;;50.80;;
8702;SDS011;9002;42.708;23.186;2024-01-15T03:44:57;87.95;;;44.40;;
8702;SDS011;9002;42.708;23.186;2024-01-15T03:47:26;88.75;;;48.58;;
8702;SDS011;9002;42.708;23.186;2024-01-15T03:49:54;86.55;;;46.13;;
8702;SDS011;9002;42.708;23.186;2024-01-15T03:52:21;83.55;;;42.15;;
8702;SDS011;9002;42.708;23.186;2024-01-15T03:54:48;90.57;;;48.13;;
8702;SDS011;9002;42.708;23.186;2024-01-15T03:57:18;87.70;;;47.47;;
8702;SDS011;9002;42.708;23.186;2024-01-15T03:59:45;80.05;;;45.13;;
8702;SDS011;9002;42.708;23.186;2024-01-15T04:02:12;89.55;;;46.60;;
8702;SDS011;9002;42.708;23.186;2024-01-15T04:04:40;80.97;;;41.65;;
8702;SDS011;9002;42.708;23.186;2024-01-15T04:07:09;77.18;;;38.80;;
8702;SDS011;9002;42.708;23.186;2024-01-15T04:09:36;76.80;;;39.55;;
8702;SDS011;9002;42.708;23.186;2024-01-15T04:12:03;85.78;;;38.15;;
8702;SDS011;9002;42.708;23.186;2024-01-15T04:14:30;82.15;;;40.80;;
8702;SDS011;9002;42.708;23.186;2024-01-15T04:16:57;80.53;;;39.42;;
8702;SDS011;9002;42.708;23.186;2024-01-15T04:19:24;85.22;;;46.78;;
8702;SDS011;9002;42.708;23.186;2024-01-15T04:21:51;83.05;;;45.58;;
8702;SDS011;9002;42.708;23.186;2024-01-15T04:24:20;77.93;;;44.17;;
8702;SDS011;9002;42.708;23.186;2024-01-15T04:26:47;85.70;;;45.90;;
8702;SDS011;9002;42.708;23.186;2024-01-15T04:29:14;87.00;;;43.55;;
8702;SDS011;9002;42.708;23.186;2024-01-15T04:31:41;75.55;;;40.00;;
8702;SDS011;9002;42.708;23.186;2024-01-15T04:34:08;87.18;;;44.20;;
8702;SDS011;9002;42.708;23.186;2024-01-15T04:36:38;86.32;;;44.80;;
8702;SDS011;9002;42.708;23.186;2024-01-15T04:39:05;90.18;;;48.17;;
8702;SDS011;9002;42.708;23.186;2024-01-15T04:44:01;83.90;;;36.92;;
8702;SDS011;9002;42.708;23.186;2024-01-15T04:46:28;79.70;;;40.22;;
8702;SDS011;9002;42.708;23.186;2024-01-15T04:48:54;83.75;;;45.72;;
8702;SDS011;9002;42.708;23.186;2024-01-15T04:51:21;86.03;;;42.22;;
8702;SDS011;9002;42.708;23.186;2024-01-15T04:53:48;86.00;;;42.55;;
8702;SDS011;9002;42.708;23.186;2024-01-15T04:56:15;82.68;;;40.47;;
8702;SDS011;9002;42.708;23.186;2024-01-15T04:58:43;83.30;;;42.03;;
8702;SDS011;9002;42.708;23.186;2024-01-15T05:01:10;77.93;;;42.03;;
8702;SDS011;9002;42.708;23.186;2024-01-15T05:03:37;81.57;;;41.40;;
8702;SDS011;9002;42.708;23.186;2024-01-15T05:06:04;79.28;;;41.45;;
8702;SDS011;9002;42.708;23.186;2024-01-15T05:08:31;94.68;;;41.42;;
8702;SDS011;9002;42.708;23.186;2024-01-15T05:10:58;83.80;;;40.17;;
8702;SDS011;9002;42.708;23.186;2024-01-15T05:13:25;70.05;;;39.22;;
8702;SDS011;9002;42.708;23.186;2024-01-15T05:15:54;80.05;;;41.40;;
8702;SDS011;9002;42.708;23.186;2024-01-15T05:18:20;79.00;;;42.53;;
8702;SDS011;9002;42.708;23.186;2024-01-15T05:20:47;81.72;;;42.30;;
8702;SDS011;9002;42.708;23.186;2024-01-15T05:23:14;84.50;;;46.83;;
8702;SDS011;9002;42.708;23.186;2024-01-15T05:25:41;73.60;;;43.72;;
8702;SDS011;9002;42.708;23.186;2024-01-15T05:28:08;78.70;;;42.70;;
8702;SDS011;9002;42.708;23.186;2024-01-15T05:30:35;69.72;;;39.83;;
8702;SDS011;9002;42.708;23.186;2024-01-15T05:33:04;75.60;;;40.22;;
8702;SDS011;9002;42.708;23.186;2024-01-15T05:35:32;73.55;;;41.13;;
8702;SDS011;9002;42.708;23.186;2024-01-15T05:37:59;78.57;;;41.42;;
8702;SDS011;9002;42.708;23.186;2024-01-15T05:40:28;84.13;;;42.22;;
8702;SDS011;9002;42.708;23.186;2024-01-15T05:42:55;78.30;;;44.80;;
8702;SDS011;9002;42.708;23.186;2024-01-15T05:45:22;86.00;;;46.22;;
8702;SDS011;9002;42.708;23.186;2024-01-15T05:47:48;87.80;;;46.80;;
8702;SDS011;9002;42.708;23.186;2024-01-15T05:50:17;85.97;;;47.75;;
8702;SDS011;9002;42.708;23.186;2024-01-15T05:52:44;90.78;;;44.75;;
8702;SDS011;9002;42.708;23.186;2024-01-15T05:55:11;91.25;;;44.53;;
8702;SDS011;9002;42.708;23.186;2024-01-15T05:57:38;87.45;;;44.67;;
8702;SDS011;9002;42.708;23.186;2024-01-15T06:00:05;95.13;;;50.65;;
8702;SDS011;9002;42.708;23.186;2024-01-15T06:02:33;86.57;;;46.67;;
8702;SDS011;9002;42.708;23.186;2024-01-15T06:05:00;78.55;;;43.78;;
8702;SDS011;9002;42.708;23.186;2024-01-15T06:09:56;79.30;;;45.13;;
8702;SDS011;9002;42.708;23.186;2024-01-15T06:12:23;95.75;;;50.60;;
8702;SDS011;9002;42.708;23.186;2024-01-15T06:14:50;97.57;;;46.92;;
8702;SDS011;9002;42.708;23.186;2024-01-15T06:19:44;88.72;;;45.45;;
8702;SDS011;9002;42.708;23.186;2024-01-15T06:22:11;102.95;;;50.72;;
8702;SDS011;9002;42.708;23.186;2024-01-15T06:24:39;94.38;;;49.53;;
8702;SDS011;9002;42.708;23.186;2024-01-15T06:27:06;89.65;;;46.10;;
8702;SDS011;9002;42.708;23.186;2024-01-15T06:29:33;96.72;;;47.33;;
8702;SDS011;9002;42.708;23.186;2024-01-15T06:32:03;91.70;;;46.42;;
8702;SDS011;9002;42.708;23.186;2024-01-15T06:34:31;97.38;;;49.70;;
8702;SDS011;9002;42.708;23.186;2024-01-15T06:36:58;89.75;;;49.17;;
8702;SDS011;9002;42.708;23.186;2024-01-15T06:39:25;86.07;;;45.10;;
8702;SDS011;9002;42.708;23.186;2024-01-15T06:41:53;86.38;;;45.53;;
8702;SDS011;9002;42.708;23.186;2024-01-15T06:44:20;88.93;;;46.50;;
8702;SDS011;9002;42.708;23.186;2024-01-15T06:49:14;81.32;;;42.50;;
8702;SDS011;9002;42.708;23.186;2024-01-15T06:51:42;76.70;;;41.88;;
8702;SDS011;9002;42.708;23.186;2024-01-15T06:54:09;76.32;;;42.17;;
8702;SDS011;9002;42.708;23.186;2024-01-15T06:56:36;73.70;;;39.10;;
8702;SDS011;9002;42.708;23.186;2024-01-15T06:59:06;86.70;;;46.53;;
8702;SDS011;9002;42.708;23.186;2024-01-15T07:01:33;75.43;;;43.22;;
8702;SDS011;9002;42.708;23.186;2024-01-15T07:04:00;78.47;;;41.97;;
8702;SDS011;9002;42.708;23.186;2024-01-15T07:06:28;71.88;;;39.63;;
8702;SDS011;9002;42.708;23.186;2024-01-15T07:08:55;84.03;;;49.08;;
8702;SDS011;9002;42.708;23.186;2024-01-15T07:13:49;78.97;;;43.13;;
8702;SDS011;9002;42.708;23.186;2024-01-15T07:16:18;79.95;;;42.90;;
8702;SDS011;9002;42.708;23.186;2024-01-15T07:18:45;74.43;;;41.17;;
8702;SDS011;9002;42.708;23.186;2024-01-15T07:21:12;80.07;;;42.85;;
8702;SDS011;9002;42.708;23.186;2024-01-15T07:23:39;83.13;;;47.33;;
8702;SDS011;9002;42.708;23.186;2024-01-15T07:26:07;85.40;;;42.10;;
8702;SDS011;9002;42.708;23.186;2024-01-15T07:28:39;71.40;;;46.38;;
8702;SDS011;9002;42.708;23.186;2024-01-15T07:31:09;80.82;;;41.13;;
8702;SDS011;9002;42.708;23.186;2024-01-15T07:33:37;82.93;;;42.97;;
8702;SDS011;9002;42.708;23.186;2024-01-15T07:36:05;78.00;;;42.67;;
8702;SDS011;9002;42.708;23.186;2024-01-15T07:38:32;81.97;;;38.55;;
8702;SDS011;9002;42.708;23.186;2024-01-15T07:40:59;77.20;;;42.60;;
8702;SDS011;9002;42.708;23.186;2024-01-15T07:43:29;78.63;;;42.88;;
8702;SDS011;9002;42.708;23.186;2024-01-15T07:45:56;81.75;;;43.20;;
8702;SDS011;9002;42.708;23.186;2024-01-15T07:48:23;93.25;;;45.47;;
8702;SDS011;9002;42.708;23.186;2024-01-15T07:50:52;94.38;;;46.38;;
8702;SDS011;9002;42.708;23.186;2024-01-15T07:53:19;91.00;;;45.75;;
8702;SDS011;9002;42.708;23.186;2024-01-15T07:55:46;87.38;;;45.88;;
8702;SDS011;9002;42.708;23.186;2024-01-15T07:58:13;79.50;;;40.95;;
8702;SDS011;9002;42.708;23.186;2024-01-15T08:00:40;87.53;;;47.47;;
8702;SDS011;9002;42.708;23.186;2024-01-15T08:03:07;89.10;;;44.05;;
8702;SDS011;9002;42.708;23.186;2024-01-15T08:05:34;79.43;;;44.60;;
8702;SDS011;9002;42.708;23.186;2024-01-15T08:08:02;71.07;;;38.53;;
8702;SDS011;9002;42.708;23.186;2024-01-15T08:10:29;65.47;;;39.97;;
8702;SDS011;9002;42.708;23.186;2024-01-15T08:12:56;62.38;;;37.20;;
8702;SDS011;9002;42.708;23.186;2024-01-15T08:15:23;67.32;;;34.30;;
8702;SDS011;9002;42.708;23.186;2024-01-15T08:17:50;62.00;;;30.75;;
8702;SDS011;9002;42.708;23.186;2024-01-15T08:20:17;45.53;;;26.17;;
8702;SDS011;9002;42.708;23.186;2024-01-15T08:22:44;51.70;;;28.30;;
8702;SDS011;9002;42.708;23.186;2024-01-15T08:25:13;43.97;;;26.02;;
8702;SDS011;9002;42.708;23.186;2024-01-15T08:27:40;46.92;;;26.83;;
8702;SDS011;9002;42.708;23.186;2024-01-15T08:30:08;43.60;;;24.70;;
8702;SDS011;9002;42.708;23.186;2024-01-15T08:32:36;47.55;;;23.85;;
8702;SDS011;9002;42.708;23.186;2024-01-15T08:35:07;48.13;;;24.58;;
8702;SDS011;9002;42.708;23.186;2024-01-15T08:37:34;39.70;;;21.48;;
8702;SDS011;9002;42.708;23.186;2024-01-15T08:40:01;43.85;;;23.40;;
8702;SDS011;9002;42.708;23.186;2024-01-15T08:42:30;47.97;;;24.98;;
8702;SDS011;9002;42.708;23.186;2024-01-15T08:44:57;51.95;;;29.35;;
8702;SDS011;9002;42.708;23.186;2024-01-15T08:47:24;57.15;;;30.33;;
8702;SDS011;9002;42.708;23.186;2024-01-15T08:49:51;53.58;;;26.13;;
8702;SDS011;9002;42.708;23.186;2024-01-15T08:52:18;54.33;;;29.08;;
8702;SDS011;9002;42.708;23.186;2024-01-15T08:54:45;48.35;;;26.13;;
8702;SDS011;9002;42.708;23.186;2024-01-15T08:57:12;58.88;;;30.45;;
8702;SDS011;9002;42.708;23.186;2024-01-15T08:59:40;51.08;;;25.42;;
8702;SDS011;9002;42.708;23.186;2024-01-15T09:02:07;43.22;;;25.38;;
8702;SDS011;9002;42.708;23.186;2024-01-15T09:04:34;46.35;;;23.88;;
8702;SDS011;9002;42.708;23.186;2024-01-15T09:07:01;51.05;;;25.20;;
8702;SDS011;9002;42.708;23.186;2024-01-15T09:09:28;43.63;;;24.30;;
8702;SDS011;9002;42.708;23.186;2024-01-15T09:11:59;48.85;;;23.90;;
8702;SDS011;9002;42.708;23.186;2024-01-15T09:14:26;45.47;;;24.33;;
8702;SDS011;9002;42.708;23.186;2024-01-15T09:16:55;46.65;;;25.85;;
8702;SDS011;9002;42.708;23.186;2024-01-15T09:19:23;49.33;;;26.33;;
8702;SDS011;9002;42.708;23.186;2024-01-15T09:21:50;49.38;;;25.63;;
8702;SDS011;9002;42.708;23.186;2024-01-15T09:24:19;55.45;;;25.65;;
8702;SDS011;9002;42.708;23.186;2024-01-15T09:26:45;61.47;;;34.65;;
8702;SDS011;9002;42.708;23.186;2024-01-15T09:29:13;75.78;;;41.90;;
8702;SDS011;9002;42.708;23.186;2024-01-15T09:31:41;83.70;;;46.92;;
8702;SDS011;9002;42.708;23.186;2024-01-15T09:34:09;82.35;;;46.72;;
8702;SDS011;9002;42.708;23.186;2024-01-15T09:36:38;88.82;;;51.33;;
8702;SDS011;9002;42.708;23.186;2024-01-15T09:39:07;86.25;;;49.80;;
8702;SDS011;9002;42.708;23.186;2024-01-15T09:41:36;92.43;;;49.67;;
8702;SDS011;9002;42.708;23.186;2024-01-15T09:44:03;101.57;;;52.90;;
8702;SDS011;9002;42.708;23.186;2024-01-15T09:46:32;98.68;;;55.08;;
8702;SDS011;9002;42.708;23.186;2024-01-15T09:49:00;99.55;;;55.95;;
8702;SDS011;9002;42.708;23.186;2024-01-15T09:51:29;103.75;;;56.67;;
8702;SDS011;9002;42.708;23.186;2024-01-15T09:53:58;106.45;;;55.15;;
8702;SDS011;9002;42.708;23.186;2024-01-15T09:58:51;92.75;;;49.85;;
8702;SDS011;9002;42.708;23.186;2024-01-15T10:01:19;96.18;;;56.63;;
8702;SDS011;9002;42.708;23.186;2024-01-15T10:03:47;98.63;;;54.72;;
8702;SDS011;9002;42.708;23.186;2024-01-15T10:06:14;109.68;;;52.55;;
8702;SDS011;9002;42.708;23.186;2024-01-15T10:08:45;95.43;;;50.10;;
8702;SDS011;9002;42.708;23.186;2024-01-15T10:11:14;96.40;;;50.17;;
8702;SDS011;9002;42.708;23.186;2024-01-15T10:13:45;82.47;;;46.53;;
8702;SDS011;9002;42.708;23.186;2024-01-15T10:16:16;82.07;;;45.63;;
8702;SDS011;9002;42.708;23.186;2024-01-15T10:18:43;91.25;;;44.92;;
8702;SDS011;9002;42.708;23.186;2024-01-15T10:21:10;76.00;;;42.97;;
8702;SDS011;9002;42.708;23.186;2024-01-15T10:23:37;67.25;;;40.30;;
8702;SDS011;9002;42.708;23.186;2024-01-15T10:26:05;62.28;;;36.80;;
8702;SDS011;9002;42.708;23.186;2024-01-15T10:28:32;57.85;;;33.72;;
8702;SDS011;9002;42.708;23.186;2024-01-15T10:30:59;62.40;;;32.95;;
8702;SDS011;9002;42.708;23.186;2024-01-15T10:33:27;60.40;;;31.42;;
8702;SDS011;9002;42.708;23.186;2024-01-15T10:38:21;46.65;;;26.20;;
8702;SDS011;9002;42.708;23.186;2024-01-15T10:40:50;53.10;;;28.00;;
8702;SDS011;9002;42.708;23.186;2024-01-15T10:43:20;49.30;;;24.35;;
8702;SDS011;9002;42.708;23.186;2024-01-15T10:45:48;40.63;;;21.40;;
8702;SDS011;9002;42.708;23.186;2024-01-15T10:48:17;46.15;;;23.95;;
8702;SDS011;9002;42.708;23.186;2024-01-15T10:50:45;41.88;;;21.65;;
8702;SDS011;9002;42.708;23.186;2024-01-15T10:53:14;37.70;;;23.13;;
8702;SDS011;9002;42.708;23.186;2024-01-15T10:55:43;36.08;;;19.25;;
8702;SDS011;9002;42.708;23.186;2024-01-15T10:58:13;40.63;;;23.77;;
8702;SDS011;9002;42.708;23.186;2024-01-15T11:00:43;36.85;;;20.17;;
8702;SDS011;9002;42.708;23.186;2024-01-15T11:03:11;38.70;;;19.38;;
8702;SDS011;9002;42.708;23.186;2024-01-15T11:05:38;38.78;;;20.30;;
8702;SDS011;9002;42.708;23.186;2024-01-15T11:08:08;39.08;;;19.58;;
8702;SDS011;9002;42.708;23.186;2024-01-15T11:10:39;35.58;;;19.38;;
8702;SDS011;9002;42.708;23.186;2024-01-15T11:13:10;35.42;;;20.00;;
8702;SDS011;9002;42.708;23.186;2024-01-15T11:15:58;35.67;;;19.00;;
8702;SDS011;9002;42.708;23.186;2024-01-15T11:18:26;29.23;;;17.42;;
8702;SDS011;9002;42.708;23.186;2024-01-15T11:23:53;30.73;;;16.85;;
8702;SDS011;9002;42.708;23.186;2024-01-15T11:26:33;34.75;;;18.13;;
8702;SDS011;9002;42.708;23.186;2024-01-15T11:29:01;37.65;;;19.05;;
8702;SDS011;9002;42.708;23.186;2024-01-15T11:37:20;27.40;;;15.68;;
8702;SDS011;9002;42.708;23.186;2024-01-15T11:39:50;30.65;;;16.92;;
8702;SDS011;9002;42.708;23.186;2024-01-15T11:42:19;30.35;;;18.73;;
8702;SDS011;9002;42.708;23.186;2024-01-15T11:44:48;28.45;;;17.63;;
8702;SDS011;9002;42.708;23.186;2024-01-15T11:47:19;33.53;;;16.25;;
8702;SDS011;9002;42.708;23.186;2024-01-15T11:50:04;27.17;;;16.65;;
8702;SDS011;9002;42.708;23.186;2024-01-15T11:52:34;27.85;;;16.38;;
8702;SDS011;9002;42.708;23.186;2024-01-15T11:55:07;27.05;;;14.70;;
8702;SDS011;9002;42.708;23.186;2024-01-15T11:57:44;24.83;;;14.13;;
8702;SDS011;9002;42.708;23.186;2024-01-15T12:02:41;24.73;;;13.02;;
8702;SDS011;9002;42.708;23.186;2024-01-15T12:05:09;34.90;;;16.10;;
8702;SDS011;9002;42.708;23.186;2024-01-15T12:07:38;27.90;;;14.70;;
8702;SDS011;9002;42.708;23.186;2024-01-15T12:10:08;23.42;;;13.65;;
8702;SDS011;9002;42.708;23.186;2024-01-15T12:12:39;26.63;;;15.52;;
8702;SDS011;9002;42.708;23.186;2024-01-15T12:15:14;27.08;;;16.95;;
8702;SDS011;9002;42.708;23.186;2024-01-15T12:17:42;33.42;;;19.08;;
8702;SDS011;9002;42.708;23.186;2024-01-15T12:20:10;26.08;;;16.17;;
8702;SDS011;9002;42.708;23.186;2024-01-15T12:22:37;32.15;;;16.85;;
8702;SDS011;9002;42.708;23.186;2024-01-15T12:25:04;28.60;;;16.27;;
8702;SDS011;9002;42.708;23.186;2024-01-15T12:27:32;27.58;;;15.65;;
8702;SDS011;9002;42.708;23.186;2024-01-15T12:29:59;29.20;;;16.48;;
8702;SDS011;9002;42.708;23.186;2024-01-15T12:32:26;31.05;;;18.00;;
8702;SDS011;9002;42.708;23.186;2024-01-15T12:34:54;40.08;;;18.25;;
8702;SDS011;9002;42.708;23.186;2024-01-15T12:37:21;31.13;;;16.95;;
8702;SDS011;9002;42.708;23.186;2024-01-15T12:39:51;30.35;;;16.95;;
8702;SDS011;9002;42.708;23.186;2024-01-15T12:42:20;26.02;;;15.35;;
8702;SDS011;9002;42.708;23.186;2024-01-15T12:44:48;28.92;;;16.08;;
8702;SDS011;9002;42.708;23.186;2024-01-15T12:47:15;31.83;;;16.95;;
8702;SDS011;9002;42.708;23.186;2024-01-15T12:49:46;38.75;;;17.15;;
8702;SDS011;9002;42.708;23.186;2024-01-15T12:52:18;35.83;;;17.85;;
8702;SDS011;9002;42.708;23.186;2024-01-15T12:54:46;29.15;;;17.50;;
8702;SDS011;9002;42.708;23.186;2024-01-15T12:57:13;26.52;;;15.93;;
8702;SDS011;9002;42.708;23.186;2024-01-15T12:59:43;34.65;;;16.65;;
8702;SDS011;9002;42.708;23.186;2024-01-15T13:02:10;40.00;;;18.52;;
8702;SDS011;9002;42.708;23.186;2024-01-15T13:04:38;30.23;;;16.67;;
8702;SDS011;9002;42.708;23.186;2024-01-15T13:07:05;33.83;;;17.20;;
8702;SDS011;9002;42.708;23.186;2024-01-15T13:09:33;26.35;;;16.13;;
8702;SDS011;9002;42.708;23.186;2024-01-15T13:12:01;29.80;;;16.33;;
8702;SDS011;9002;42.708;23.186;2024-01-15T13:14:29;31.67;;;18.52;;
8702;SDS011;9002;42.708;23.186;2024-01-15T13:19:26;40.33;;;21.23;;
8702;SDS011;9002;42.708;23.186;2024-01-15T13:21:53;41.03;;;22.33;;
8702;SDS011;9002;42.708;23.186;2024-01-15T13:24:21;37.53;;;20.45;;
8702;SDS011;9002;42.708;23.186;2024-01-15T13:26:50;43.83;;;20.67;;
8702;SDS011;9002;42.708;23.186;2024-01-15T13:29:17;33.65;;;19.13;;
8702;SDS011;9002;42.708;23.186;2024-01-15T13:31:44;31.40;;;19.17;;
8702;SDS011;9002;42.708;23.186;2024-01-15T13:34:12;38.65;;;21.08;;
8702;SDS011;9002;42.708;23.186;2024-01-15T13:36:39;33.83;;;17.63;;
8702;SDS011;9002;42.708;23.186;2024-01-15T13:39:06;31.88;;;16.92;;
8702;SDS011;9002;42.708;23.186;2024-01-15T13:41:34;32.80;;;17.40;;
8702;SDS011;9002;42.708;23.186;2024-01-15T13:44:03;35.42;;;18.98;;
8702;SDS011;9002;42.708;23.186;2024-01-15T13:46:30;33.33;;;19.38;;
8702;SDS011;9002;42.708;23.186;2024-01-15T13:48:59;29.48;;;17.65;;
8702;SDS011;9002;42.708;23.186;2024-01-15T13:51:27;31.48;;;16.50;;
8702;SDS011;9002;42.708;23.186;2024-01-15T13:53:55;30.65;;;16.67;;
8702;SDS011;9002;42.708;23.186;2024-01-15T13:58:48;30.15;;;13.50;;
8702;SDS011;9002;42.708;23.186;2024-01-15T14:01:18;27.90;;;15.45;;
8702;SDS011;9002;42.708;23.186;2024-01-15T14:03:46;25.58;;;15.10;;
8702;SDS011;9002;42.708;23.186;2024-01-15T14:08:40;31.80;;;15.25;;
8702;SDS011;9002;42.708;23.186;2024-01-15T14:13:35;28.90;;;15.55;;
8702;SDS011;9002;42.708;23.186;2024-01-15T14:16:02;34.08;;;17.42;;
8702;SDS011;9002;42.708;23.186;2024-01-15T14:18:31;35.85;;;18.63;;
8702;SDS011;9002;42.708;23.186;2024-01-15T14:20:59;33.25;;;17.45;;
8702;SDS011;9002;42.708;23.186;2024-01-15T14:25:52;27.80;;;14.55;;
8702;SDS011;9002;42.708;23.186;2024-01-15T14:28:20;30.45;;;16.77;;
8702;SDS011;9002;42.708;23.186;2024-01-15T14:30:48;32.08;;;14.60;;
8702;SDS011;9002;42.708;23.186;2024-01-15T14:33:16;27.85;;;14.98;;
8702;SDS011;9002;42.708;23.186;2024-01-15T14:35:49;32.20;;;15.70;;
8702;SDS011;9002;42.708;23.186;2024-01-15T14:38:17;28.70;;;16.30;;
8702;SDS011;9002;42.708;23.186;2024-01-15T14:43:10;30.20;;;16.52;;
8702;SDS011;9002;42.708;23.186;2024-01-15T14:48:04;28.35;;;14.73;;
8702;SDS011;9002;42.708;23.186;2024-01-15T14:50:31;28.58;;;14.68;;
8702;SDS011;9002;42.708;23.186;2024-01-15T14:55:26;23.90;;;14.30;;
8702;SDS011;9002;42.708;23.186;2024-01-15T14:57:55;28.33;;;17.27;;
8702;SDS011;9002;42.708;23.186;2024-01-15T15:00:25;32.67;;;18.52;;
8702;SDS011;9002;42.708;23.186;2024-01-15T15:02:52;32.42;;;16.73;;
8702;SDS011;9002;42.708;23.186;2024-01-15T15:07:45;28.10;;;15.45;;
8702;SDS011;9002;42.708;23.186;2024-01-15T15:10:14;34.78;;;16.90;;
8702;SDS011;9002;42.708;23.186;2024-01-15T15:12:41;34.70;;;17.58;;
8702;SDS011;9002;42.708;23.186;2024-01-15T15:15:09;34.10;;;17.40;;
8702;SDS011;9002;42.708;23.186;2024-01-15T15:17:38;30.13;;;17.25;;
8702;SDS011;9002;42.708;23.186;2024-01-15T15:20:06;32.03;;;16.17;;
8702;SDS011;9002;42.708;23.186;2024-01-15T15:22:34;29.98;;;15.32;;
8702;SDS011;9002;42.708;23.186;2024-01-15T15:25:01;28.15;;;15.27;;
8702;SDS011;9002;42.708;23.186;2024-01-15T15:27:29;30.08;;;15.75;;
8702;SDS011;9002;42.708;23.186;2024-01-15T15:29:56;26.55;;;15.13;;
8702;SDS011;9002;42.708;23.186;2024-01-15T15:32:23;26.50;;;14.73;;
8702;SDS011;9002;42.708;23.186;2024-01-15T15:34:50;29.48;;;16.13;;
8702;SDS011;9002;42.708;23.186;2024-01-15T15:39:44;25.90;;;14.27;;